sensor_id;sensor_type;location;lat;lon;timestamp;temperature;humidity
24814;DHT22;12904;50.088;11.414;2022-10-16T00:00:38;14.60;99.90
24814;DHT22;12904;50.088;11.414;2022-10-16T00:03:05;14.60;99.90
24814;DHT22;12904;50.088;11.414;2022-10-16T00:05:31;14.70;99.90
24814;DHT22;12904;50.088;11.414;2022-10-16T00:07:57;14.70;99.90
24814;DHT22;12904;50.088;11.414;2022-10-16T00:10:23;14.70;99.90
24814;DHT22;12904;50.088;11.414;2022-10-16T00:12:49;14.70;99.90
24814;DHT22;12904;50.088;11.414;2022-10-16T00:15:14;14.70;99.90
24814;DHT22;12904;50.088;11.414;2022-10-16T00:17:40;14.70;99.90
24814;DHT22;12904;50.088;11.414;2022-10-16T00:20:06;14.70;99.90
24814;DHT22;12904;50.088;11.414;2022-10-16T00:22:32;14.80;99.90
24814;DHT22;12904;50.088;11.414;2022-10-16T00:24:58;14.80;99.90
24814;DHT22;12904;50.088;11.414;2022-10-16T00:27:24;14.80;99.90
24814;DHT22;12904;50.088;11.414;2022-10-16T00:29:52;14.70;99.90
24814;DHT22;12904;50.088;11.414;2022-10-16T00:32:19;14.70;99.90
24814;DHT22;12904;50.088;11.414;2022-10-16T00:34:45;14.70;99.90
24814;DHT22;12904;50.088;11.414;2022-10-16T00:37:11;14.60;99.90
24814;DHT22;12904;50.088;11.414;2022-10-16T00:39:37;14.60;99.90
24814;DHT22;12904;50.088;11.414;2022-10-16T00:42:03;14.60;99.90
24814;DHT22;12904;50.088;11.414;2022-10-16T00:47:18;14.60;99.90
24814;DHT22;12904;50.088;11.414;2022-10-16T00:49:45;14.60;99.90
24814;DHT22;12904;50.088;11.414;2022-10-16T00:52:12;14.60;99.90
24814;DHT22;12904;50.088;11.414;2022-10-16T00:54:38;14.60;99.90
24814;DHT22;12904;50.088;11.414;2022-10-16T00:57:05;14.60;99.90
24814;DHT22;12904;50.088;11.414;2022-10-16T00:59:37;14.60;99.90
24814;DHT22;12904;50.088;11.414;2022-10-16T01:02:05;14.70;99.90
24814;DHT22;12904;50.088;11.414;2022-10-16T01:04:39;14.70;99.90
24814;DHT22;12904;50.088;11.414;2022-10-16T01:07:11;14.70;99.90
24814;DHT22;12904;50.088;11.414;2022-10-16T01:12:32;14.80;99.90
24814;DHT22;12904;50.088;11.414;2022-10-16T01:17:40;14.80;99.90
24814;DHT22;12904;50.088;11.414;2022-10-16T01:20:10;14.90;99.90
24814;DHT22;12904;50.088;11.414;2022-10-16T01:25:35;14.90;99.90
24814;DHT22;12904;50.088;11.414;2022-10-16T01:28:03;14.90;99.90
24814;DHT22;12904;50.088;11.414;2022-10-16T01:30:32;14.90;99.90
24814;DHT22;12904;50.088;11.414;2022-10-16T01:35:34;14.90;99.90
24814;DHT22;12904;50.088;11.414;2022-10-16T01:38:19;14.80;99.90
24814;DHT22;12904;50.088;11.414;2022-10-16T01:40:52;14.80;99.90
24814;DHT22;12904;50.088;11.414;2022-10-16T01:43:35;14.80;99.90
24814;DHT22;12904;50.088;11.414;2022-10-16T01:46:02;14.80;99.90
24814;DHT22;12904;50.088;11.414;2022-10-16T01:48:29;14.80;99.90
24814;DHT22;12904;50.088;11.414;2022-10-16T01:51:06;14.80;99.90
24814;DHT22;12904;50.088;11.414;2022-10-16T01:53:32;14.80;99.90
24814;DHT22;12904;50.088;11.414;2022-10-16T01:55:59;14.80;99.90
24814;DHT22;12904;50.088;11.414;2022-10-16T01:58:28;14.80;99.90
24814;DHT22;12904;50.088;11.414;2022-10-16T02:00:56;14.70;99.90
24814;DHT22;12904;50.088;11.414;2022-10-16T02:03:22;14.70;99.90
24814;DHT22;12904;50.088;11.414;2022-10-16T02:05:53;14.70;99.90
24814;DHT22;12904;50.088;11.414;2022-10-16T02:08:20;14.60;99.90
24814;DHT22;12904;50.088;11.414;2022-10-16T02:10:46;14.60;99.90
24814;DHT22;12904;50.088;11.414;2022-10-16T02:13:17;14.60;99.90
24814;DHT22;12904;50.088;11.414;2022-10-16T02:15:45;14.50;99.90
24814;DHT22;12904;50.088;11.414;2022-10-16T02:18:10;14.50;99.90
24814;DHT22;12904;50.088;11.414;2022-10-16T02:20:43;14.50;99.90
24814;DHT22;12904;50.088;11.414;2022-10-16T02:23:13;14.60;99.90
24814;DHT22;12904;50.088;11.414;2022-10-16T02:25:44;14.60;99.90
24814;DHT22;12904;50.088;11.414;2022-10-16T02:28:20;14.60;99.90
24814;DHT22;12904;50.088;11.414;2022-10-16T02:30:56;14.60;99.90
24814;DHT22;12904;50.088;11.414;2022-10-16T02:33:25;14.60;99.90
24814;DHT22;12904;50.088;11.414;2022-10-16T02:35:52;14.60;99.90
24814;DHT22;12904;50.088;11.414;2022-10-16T02:38:20;14.70;99.90
24814;DHT22;12904;50.088;11.414;2022-10-16T02:40:46;14.70;99.90
24814;DHT22;12904;50.088;11.414;2022-10-16T02:43:12;14.70;99.90
24814;DHT22;12904;50.088;11.414;2022-10-16T02:45:38;14.70;99.90
24814;DHT22;12904;50.088;11.414;2022-10-16T02:48:04;14.70;99.90
24814;DHT22;12904;50.088;11.414;2022-10-16T02:50:30;14.70;99.90
24814;DHT22;12904;50.088;11.414;2022-10-16T02:52:56;14.70;99.90
24814;DHT22;12904;50.088;11.414;2022-10-16T02:55:21;14.70;99.90
24814;DHT22;12904;50.088;11.414;2022-10-16T02:57:47;14.80;99.90
24814;DHT22;12904;50.088;11.414;2022-10-16T03:00:15;14.80;99.90
24814;DHT22;12904;50.088;11.414;2022-10-16T03:02:41;14.80;99.90
24814;DHT22;12904;50.088;11.414;2022-10-16T03:05:07;14.80;99.90
24814;DHT22;12904;50.088;11.414;2022-10-16T03:07:33;14.80;99.90
24814;DHT22;12904;50.088;11.414;2022-10-16T03:09:58;14.80;99.90
24814;DHT22;12904;50.088;11.414;2022-10-16T03:12:29;14.80;99.90
24814;DHT22;12904;50.088;11.414;2022-10-16T03:14:56;14.70;99.90
24814;DHT22;12904;50.088;11.414;2022-10-16T03:17:22;14.80;99.90
24814;DHT22;12904;50.088;11.414;2022-10-16T03:19:48;14.80;99.90
24814;DHT22;12904;50.088;11.414;2022-10-16T03:22:13;14.80;99.90
24814;DHT22;12904;50.088;11.414;2022-10-16T03:24:39;14.70;99.90
24814;DHT22;12904;50.088;11.414;2022-10-16T03:27:05;14.70;99.90
24814;DHT22;12904;50.088;11.414;2022-10-16T03:29:31;14.80;99.90
24814;DHT22;12904;50.088;11.414;2022-10-16T03:31:58;14.80;99.90
24814;DHT22;12904;50.088;11.414;2022-10-16T03:34:24;14.80;99.90
24814;DHT22;12904;50.088;11.414;2022-10-16T03:36:50;14.70;99.90
24814;DHT22;12904;50.088;11.414;2022-10-16T03:39:15;14.70;99.90
24814;DHT22;12904;50.088;11.414;2022-10-16T03:41:41;14.70;99.90
24814;DHT22;12904;50.088;11.414;2022-10-16T03:44:07;14.70;99.90
24814;DHT22;12904;50.088;11.414;2022-10-16T03:46:32;14.70;99.90
24814;DHT22;12904;50.088;11.414;2022-10-16T03:48:58;14.70;99.90
24814;DHT22;12904;50.088;11.414;2022-10-16T03:51:23;14.70;99.90
24814;DHT22;12904;50.088;11.414;2022-10-16T03:53:49;14.70;99.90
24814;DHT22;12904;50.088;11.414;2022-10-16T03:56:15;14.70;99.90
24814;DHT22;12904;50.088;11.414;2022-10-16T03:58:41;14.70;99.90
24814;DHT22;12904;50.088;11.414;2022-10-16T04:01:06;14.60;99.90
24814;DHT22;12904;50.088;11.414;2022-10-16T04:03:32;14.60;99.90
24814;DHT22;12904;50.088;11.414;2022-10-16T04:05:58;14.60;99.90
24814;DHT22;12904;50.088;11.414;2022-10-16T04:08:24;14.60;99.90
24814;DHT22;12904;50.088;11.414;2022-10-16T04:10:49;14.60;99.90
24814;DHT22;12904;50.088;11.414;2022-10-16T04:13:15;14.60;99.90
24814;DHT22;12904;50.088;11.414;2022-10-16T04:15:41;14.60;99.90
24814;DHT22;12904;50.088;11.414;2022-10-16T04:18:07;14.60;99.90
24814;DHT22;12904;50.088;11.414;2022-10-16T04:20:33;14.60;99.90
24814;DHT22;12904;50.088;11.414;2022-10-16T04:22:58;14.60;99.90
24814;DHT22;12904;50.088;11.414;2022-10-16T04:25:24;14.60;99.90
24814;DHT22;12904;50.088;11.414;2022-10-16T04:27:52;14.70;99.90
24814;DHT22;12904;50.088;11.414;2022-10-16T04:30:17;14.70;99.90
24814;DHT22;12904;50.088;11.414;2022-10-16T04:32:43;14.70;99.90
24814;DHT22;12904;50.088;11.414;2022-10-16T04:35:09;14.70;99.90
24814;DHT22;12904;50.088;11.414;2022-10-16T04:37:34;14.70;99.90
24814;DHT22;12904;50.088;11.414;2022-10-16T04:40:00;14.70;99.90
24814;DHT22;12904;50.088;11.414;2022-10-16T04:42:26;14.70;99.90
24814;DHT22;12904;50.088;11.414;2022-10-16T04:44:51;14.70;99.90
24814;DHT22;12904;50.088;11.414;2022-10-16T04:47:17;14.70;99.90
24814;DHT22;12904;50.088;11.414;2022-10-16T04:49:43;14.70;99.90
24814;DHT22;12904;50.088;11.414;2022-10-16T04:52:08;14.70;99.90
24814;DHT22;12904;50.088;11.414;2022-10-16T04:54:35;14.70;99.90
24814;DHT22;12904;50.088;11.414;2022-10-16T04:57:00;14.70;99.90
24814;DHT22;12904;50.088;11.414;2022-10-16T04:59:26;14.70;99.90
24814;DHT22;12904;50.088;11.414;2022-10-16T05:01:51;14.70;99.90
24814;DHT22;12904;50.088;11.414;2022-10-16T05:04:17;14.60;99.90
24814;DHT22;12904;50.088;11.414;2022-10-16T05:06:43;14.60;99.90
24814;DHT22;12904;50.088;11.414;2022-10-16T05:09:09;14.60;99.90
24814;DHT22;12904;50.088;11.414;2022-10-16T05:11:35;14.60;99.90
24814;DHT22;12904;50.088;11.414;2022-10-16T05:14:01;14.60;99.90
24814;DHT22;12904;50.088;11.414;2022-10-16T05:16:27;14.60;99.90
24814;DHT22;12904;50.088;11.414;2022-10-16T05:18:53;14.60;99.90
24814;DHT22;12904;50.088;11.414;2022-10-16T05:21:20;14.60;99.90
24814;DHT22;12904;50.088;11.414;2022-10-16T05:23:45;14.60;99.90
24814;DHT22;12904;50.088;11.414;2022-10-16T05:26:11;14.60;99.90
24814;DHT22;12904;50.088;11.414;2022-10-16T05:28:37;14.60;99.90
24814;DHT22;12904;50.088;11.414;2022-10-16T05:31:06;14.60;99.90
24814;DHT22;12904;50.088;11.414;2022-10-16T05:33:32;14.60;99.90
24814;DHT22;12904;50.088;11.414;2022-10-16T05:36:06;14.60;99.90
24814;DHT22;12904;50.088;11.414;2022-10-16T05:38:36;14.60;99.90
24814;DHT22;12904;50.088;11.414;2022-10-16T05:41:03;14.60;99.90
24814;DHT22;12904;50.088;11.414;2022-10-16T05:43:29;14.60;99.90
24814;DHT22;12904;50.088;11.414;2022-10-16T05:45:56;14.60;99.90
24814;DHT22;12904;50.088;11.414;2022-10-16T05:48:22;14.70;99.90
24814;DHT22;12904;50.088;11.414;2022-10-16T05:50:48;14.70;99.90
24814;DHT22;12904;50.088;11.414;2022-10-16T05:53:14;14.70;99.90
24814;DHT22;12904;50.088;11.414;2022-10-16T05:55:39;14.70;99.90
24814;DHT22;12904;50.088;11.414;2022-10-16T05:58:05;14.70;99.90
24814;DHT22;12904;50.088;11.414;2022-10-16T06:00:31;14.70;99.90
24814;DHT22;12904;50.088;11.414;2022-10-16T06:02:56;14.70;99.90
24814;DHT22;12904;50.088;11.414;2022-10-16T06:05:22;14.70;99.90
24814;DHT22;12904;50.088;11.414;2022-10-16T06:07:47;14.70;99.90
24814;DHT22;12904;50.088;11.414;2022-10-16T06:10:13;14.70;99.90
24814;DHT22;12904;50.088;11.414;2022-10-16T06:12:38;14.80;99.90
24814;DHT22;12904;50.088;11.414;2022-10-16T06:15:04;14.80;99.90
24814;DHT22;12904;50.088;11.414;2022-10-16T06:17:30;14.80;99.90
24814;DHT22;12904;50.088;11.414;2022-10-16T06:19:56;14.80;99.90
24814;DHT22;12904;50.088;11.414;2022-10-16T06:22:21;14.80;99.90
24814;DHT22;12904;50.088;11.414;2022-10-16T06:24:47;14.80;99.90
24814;DHT22;12904;50.088;11.414;2022-10-16T06:27:13;14.80;99.90
24814;DHT22;12904;50.088;11.414;2022-10-16T06:29:38;14.80;99.90
24814;DHT22;12904;50.088;11.414;2022-10-16T06:32:04;14.80;99.90
24814;DHT22;12904;50.088;11.414;2022-10-16T06:34:29;14.80;99.90
24814;DHT22;12904;50.088;11.414;2022-10-16T06:36:55;14.90;99.90
24814;DHT22;12904;50.088;11.414;2022-10-16T06:39:21;14.90;99.90
24814;DHT22;12904;50.088;11.414;2022-10-16T06:41:46;14.90;99.90
24814;DHT22;12904;50.088;11.414;2022-10-16T06:44:12;14.90;99.90
24814;DHT22;12904;50.088;11.414;2022-10-16T06:46:37;15.00;99.90
24814;DHT22;12904;50.088;11.414;2022-10-16T06:49:03;15.00;99.90
24814;DHT22;12904;50.088;11.414;2022-10-16T06:51:29;15.00;99.90
24814;DHT22;12904;50.088;11.414;2022-10-16T06:53:56;15.00;99.90
24814;DHT22;12904;50.088;11.414;2022-10-16T06:56:23;15.00;99.90
24814;DHT22;12904;50.088;11.414;2022-10-16T06:58:49;15.00;99.90
24814;DHT22;12904;50.088;11.414;2022-10-16T07:01:16;15.00;99.90
24814;DHT22;12904;50.088;11.414;2022-10-16T07:03:43;15.00;99.90
24814;DHT22;12904;50.088;11.414;2022-10-16T07:06:11;15.00;99.90
24814;DHT22;12904;50.088;11.414;2022-10-16T07:08:39;15.00;99.90
24814;DHT22;12904;50.088;11.414;2022-10-16T07:11:07;15.00;99.90
24814;DHT22;12904;50.088;11.414;2022-10-16T07:13:34;15.00;99.90
24814;DHT22;12904;50.088;11.414;2022-10-16T07:18:39;15.10;99.90
24814;DHT22;12904;50.088;11.414;2022-10-16T07:21:06;15.10;99.90
24814;DHT22;12904;50.088;11.414;2022-10-16T07:23:32;15.20;99.90
24814;DHT22;12904;50.088;11.414;2022-10-16T07:25:58;15.20;99.90
24814;DHT22;12904;50.088;11.414;2022-10-16T07:28:24;15.20;99.90
24814;DHT22;12904;50.088;11.414;2022-10-16T07:30:50;15.30;99.90
24814;DHT22;12904;50.088;11.414;2022-10-16T07:33:15;15.30;99.90
24814;DHT22;12904;50.088;11.414;2022-10-16T07:35:53;15.40;99.90
24814;DHT22;12904;50.088;11.414;2022-10-16T07:38:20;15.40;99.90
24814;DHT22;12904;50.088;11.414;2022-10-16T07:40:45;15.50;99.90
24814;DHT22;12904;50.088;11.414;2022-10-16T07:43:11;15.50;99.90
24814;DHT22;12904;50.088;11.414;2022-10-16T07:45:49;15.60;99.90
24814;DHT22;12904;50.088;11.414;2022-10-16T07:48:16;15.70;99.90
24814;DHT22;12904;50.088;11.414;2022-10-16T07:50:42;15.70;99.90
24814;DHT22;12904;50.088;11.414;2022-10-16T07:53:08;15.70;99.90
24814;DHT22;12904;50.088;11.414;2022-10-16T07:55:34;15.80;99.90
24814;DHT22;12904;50.088;11.414;2022-10-16T07:57:59;15.80;99.90
24814;DHT22;12904;50.088;11.414;2022-10-16T08:00:25;15.90;99.90
24814;DHT22;12904;50.088;11.414;2022-10-16T08:02:51;15.90;99.90
24814;DHT22;12904;50.088;11.414;2022-10-16T08:05:16;16.00;99.90
24814;DHT22;12904;50.088;11.414;2022-10-16T08:07:42;16.00;99.90
24814;DHT22;12904;50.088;11.414;2022-10-16T08:10:17;16.00;99.90
24814;DHT22;12904;50.088;11.414;2022-10-16T08:12:42;16.00;99.90
24814;DHT22;12904;50.088;11.414;2022-10-16T08:15:09;16.00;99.90
24814;DHT22;12904;50.088;11.414;2022-10-16T08:17:34;15.90;99.90
24814;DHT22;12904;50.088;11.414;2022-10-16T08:20:00;15.90;99.90
24814;DHT22;12904;50.088;11.414;2022-10-16T08:22:27;16.00;99.90
24814;DHT22;12904;50.088;11.414;2022-10-16T08:24:52;16.10;99.90
24814;DHT22;12904;50.088;11.414;2022-10-16T08:27:18;16.20;99.90
24814;DHT22;12904;50.088;11.414;2022-10-16T08:29:43;16.20;99.90
24814;DHT22;12904;50.088;11.414;2022-10-16T08:32:09;16.30;99.90
24814;DHT22;12904;50.088;11.414;2022-10-16T08:34:35;16.40;99.90
24814;DHT22;12904;50.088;11.414;2022-10-16T08:37:00;16.40;99.90
24814;DHT22;12904;50.088;11.414;2022-10-16T08:39:26;16.50;99.90
24814;DHT22;12904;50.088;11.414;2022-10-16T08:49:19;16.90;99.90
24814;DHT22;12904;50.088;11.414;2022-10-16T08:51:45;17.10;99.90
24814;DHT22;12904;50.088;11.414;2022-10-16T08:54:25;17.20;99.90
24814;DHT22;12904;50.088;11.414;2022-10-16T08:57:17;17.20;99.90
24814;DHT22;12904;50.088;11.414;2022-10-16T08:59:44;17.20;99.90
24814;DHT22;12904;50.088;11.414;2022-10-16T09:05:23;17.30;99.90
24814;DHT22;12904;50.088;11.414;2022-10-16T09:13:31;17.50;99.90
24814;DHT22;12904;50.088;11.414;2022-10-16T09:16:19;17.50;99.90
24814;DHT22;12904;50.088;11.414;2022-10-16T09:18:52;17.50;99.90
24814;DHT22;12904;50.088;11.414;2022-10-16T09:21:28;17.50;99.90
24814;DHT22;12904;50.088;11.414;2022-10-16T09:23:58;17.50;99.90
24814;DHT22;12904;50.088;11.414;2022-10-16T09:26:25;17.50;99.90
24814;DHT22;12904;50.088;11.414;2022-10-16T09:28:52;17.60;99.90
24814;DHT22;12904;50.088;11.414;2022-10-16T09:31:20;17.70;99.90
24814;DHT22;12904;50.088;11.414;2022-10-16T09:33:52;17.70;99.90
24814;DHT22;12904;50.088;11.414;2022-10-16T09:36:19;17.80;99.90
24814;DHT22;12904;50.088;11.414;2022-10-16T09:38:45;17.90;99.90
24814;DHT22;12904;50.088;11.414;2022-10-16T09:41:29;17.80;99.90
24814;DHT22;12904;50.088;11.414;2022-10-16T09:43:57;17.80;99.90
24814;DHT22;12904;50.088;11.414;2022-10-16T09:48:58;17.60;99.90
24814;DHT22;12904;50.088;11.414;2022-10-16T09:51:27;17.50;99.90
24814;DHT22;12904;50.088;11.414;2022-10-16T09:54:17;17.50;99.90
24814;DHT22;12904;50.088;11.414;2022-10-16T09:56:41;17.40;99.90
24814;DHT22;12904;50.088;11.414;2022-10-16T09:59:13;17.40;99.90
24814;DHT22;12904;50.088;11.414;2022-10-16T10:01:40;17.40;99.90
24814;DHT22;12904;50.088;11.414;2022-10-16T10:04:07;17.40;99.90
24814;DHT22;12904;50.088;11.414;2022-10-16T10:06:35;17.40;99.90
24814;DHT22;12904;50.088;11.414;2022-10-16T10:09:14;17.40;99.90
24814;DHT22;12904;50.088;11.414;2022-10-16T10:11:57;17.50;99.90
24814;DHT22;12904;50.088;11.414;2022-10-16T10:14:38;17.50;99.90
24814;DHT22;12904;50.088;11.414;2022-10-16T10:22:16;17.80;99.90
24814;DHT22;12904;50.088;11.414;2022-10-16T10:24:44;17.90;99.90
24814;DHT22;12904;50.088;11.414;2022-10-16T10:27:16;18.10;99.90
24814;DHT22;12904;50.088;11.414;2022-10-16T10:32:44;18.40;99.90
24814;DHT22;12904;50.088;11.414;2022-10-16T10:35:19;18.50;99.90
24814;DHT22;12904;50.088;11.414;2022-10-16T10:43:43;18.50;99.90
24814;DHT22;12904;50.088;11.414;2022-10-16T10:57:24;18.80;99.90
24814;DHT22;12904;50.088;11.414;2022-10-16T11:03:02;18.80;99.90
24814;DHT22;12904;50.088;11.414;2022-10-16T11:05:43;18.80;99.90
24814;DHT22;12904;50.088;11.414;2022-10-16T11:10:54;18.80;99.90
24814;DHT22;12904;50.088;11.414;2022-10-16T11:13:44;18.90;99.90
24814;DHT22;12904;50.088;11.414;2022-10-16T11:16:28;19.10;99.90
24814;DHT22;12904;50.088;11.414;2022-10-16T11:18:59;19.20;99.90
24814;DHT22;12904;50.088;11.414;2022-10-16T11:21:30;19.20;99.90
24814;DHT22;12904;50.088;11.414;2022-10-16T11:24:23;19.20;99.90
24814;DHT22;12904;50.088;11.414;2022-10-16T11:26:52;19.10;99.90
24814;DHT22;12904;50.088;11.414;2022-10-16T11:29:29;19.10;99.90
24814;DHT22;12904;50.088;11.414;2022-10-16T11:32:10;19.10;99.90
24814;DHT22;12904;50.088;11.414;2022-10-16T11:34:47;19.10;99.90
24814;DHT22;12904;50.088;11.414;2022-10-16T11:37:21;19.10;99.90
24814;DHT22;12904;50.088;11.414;2022-10-16T11:39:50;19.00;99.90
24814;DHT22;12904;50.088;11.414;2022-10-16T11:42:40;19.10;99.90
24814;DHT22;12904;50.088;11.414;2022-10-16T11:55:45;18.90;99.90
24814;DHT22;12904;50.088;11.414;2022-10-16T12:09:01;18.80;99.90
24814;DHT22;12904;50.088;11.414;2022-10-16T12:11:38;18.60;99.90
24814;DHT22;12904;50.088;11.414;2022-10-16T12:19:20;17.90;99.90
24814;DHT22;12904;50.088;11.414;2022-10-16T12:21:46;17.80;99.90
24814;DHT22;12904;50.088;11.414;2022-10-16T12:26:56;17.70;99.90
24814;DHT22;12904;50.088;11.414;2022-10-16T12:29:38;17.70;99.90
24814;DHT22;12904;50.088;11.414;2022-10-16T12:32:19;17.70;99.90
24814;DHT22;12904;50.088;11.414;2022-10-16T12:34:48;17.80;99.90
24814;DHT22;12904;50.088;11.414;2022-10-16T12:37:30;17.90;99.90
24814;DHT22;12904;50.088;11.414;2022-10-16T12:39:57;18.00;99.90
24814;DHT22;12904;50.088;11.414;2022-10-16T12:42:31;18.30;99.90
24814;DHT22;12904;50.088;11.414;2022-10-16T12:44:58;18.50;99.90
24814;DHT22;12904;50.088;11.414;2022-10-16T12:49:57;19.00;99.90
24814;DHT22;12904;50.088;11.414;2022-10-16T12:55:03;19.00;99.90
24814;DHT22;12904;50.088;11.414;2022-10-16T13:02:54;18.80;99.90
24814;DHT22;12904;50.088;11.414;2022-10-16T13:05:38;18.80;99.90
24814;DHT22;12904;50.088;11.414;2022-10-16T13:19:28;19.10;99.90
24814;DHT22;12904;50.088;11.414;2022-10-16T13:29:53;19.20;99.90
24814;DHT22;12904;50.088;11.414;2022-10-16T13:32:21;19.20;99.90
24814;DHT22;12904;50.088;11.414;2022-10-16T13:34:48;19.30;99.90
24814;DHT22;12904;50.088;11.414;2022-10-16T13:37:24;19.20;99.90
24814;DHT22;12904;50.088;11.414;2022-10-16T13:39:50;19.20;99.90
24814;DHT22;12904;50.088;11.414;2022-10-16T13:42:28;19.30;99.90
24814;DHT22;12904;50.088;11.414;2022-10-16T13:44:55;19.20;99.90
24814;DHT22;12904;50.088;11.414;2022-10-16T13:47:27;19.20;99.90
24814;DHT22;12904;50.088;11.414;2022-10-16T13:50:01;19.20;99.90
24814;DHT22;12904;50.088;11.414;2022-10-16T13:52:27;19.20;99.90
24814;DHT22;12904;50.088;11.414;2022-10-16T13:54:53;19.30;99.90
24814;DHT22;12904;50.088;11.414;2022-10-16T13:57:23;19.30;99.90
24814;DHT22;12904;50.088;11.414;2022-10-16T13:59:48;19.30;99.90
24814;DHT22;12904;50.088;11.414;2022-10-16T14:02:36;19.40;99.90
24814;DHT22;12904;50.088;11.414;2022-10-16T14:05:04;19.40;99.90
24814;DHT22;12904;50.088;11.414;2022-10-16T14:07:34;19.40;99.90
24814;DHT22;12904;50.088;11.414;2022-10-16T14:10:05;19.40;99.90
24814;DHT22;12904;50.088;11.414;2022-10-16T14:12:32;19.40;99.90
24814;DHT22;12904;50.088;11.414;2022-10-16T14:14:59;19.40;99.90
24814;DHT22;12904;50.088;11.414;2022-10-16T14:17:31;19.50;99.90
24814;DHT22;12904;50.088;11.414;2022-10-16T14:20:00;19.60;99.90
24814;DHT22;12904;50.088;11.414;2022-10-16T14:22:36;19.70;99.90
24814;DHT22;12904;50.088;11.414;2022-10-16T14:25:26;19.80;99.90
24814;DHT22;12904;50.088;11.414;2022-10-16T14:28:13;20.00;99.90
24814;DHT22;12904;50.088;11.414;2022-10-16T14:30:59;20.10;99.90
24814;DHT22;12904;50.088;11.414;2022-10-16T14:38:29;20.20;99.90
24814;DHT22;12904;50.088;11.414;2022-10-16T14:40:57;20.10;99.90
24814;DHT22;12904;50.088;11.414;2022-10-16T14:43:44;20.10;99.90
24814;DHT22;12904;50.088;11.414;2022-10-16T14:46:47;20.10;99.90
24814;DHT22;12904;50.088;11.414;2022-10-16T14:49:26;20.10;99.90
24814;DHT22;12904;50.088;11.414;2022-10-16T14:51:53;20.10;99.90
24814;DHT22;12904;50.088;11.414;2022-10-16T14:54:19;20.10;99.90
24814;DHT22;12904;50.088;11.414;2022-10-16T14:59:18;19.90;99.90
24814;DHT22;12904;50.088;11.414;2022-10-16T15:01:45;19.80;99.90
24814;DHT22;12904;50.088;11.414;2022-10-16T15:04:12;19.70;99.90
24814;DHT22;12904;50.088;11.414;2022-10-16T15:06:38;19.60;99.90
24814;DHT22;12904;50.088;11.414;2022-10-16T15:09:04;19.40;99.90
24814;DHT22;12904;50.088;11.414;2022-10-16T15:11:31;19.30;99.90
24814;DHT22;12904;50.088;11.414;2022-10-16T15:13:58;19.10;99.90
24814;DHT22;12904;50.088;11.414;2022-10-16T15:16:24;19.00;99.90
24814;DHT22;12904;50.088;11.414;2022-10-16T15:18:49;18.80;99.90
24814;DHT22;12904;50.088;11.414;2022-10-16T15:21:30;18.70;99.90
24814;DHT22;12904;50.088;11.414;2022-10-16T15:23:56;18.60;99.90
24814;DHT22;12904;50.088;11.414;2022-10-16T15:26:23;18.50;99.90
24814;DHT22;12904;50.088;11.414;2022-10-16T15:28:49;18.40;99.90
24814;DHT22;12904;50.088;11.414;2022-10-16T15:31:14;18.40;99.90
24814;DHT22;12904;50.088;11.414;2022-10-16T15:33:40;18.30;99.90
24814;DHT22;12904;50.088;11.414;2022-10-16T15:36:06;18.30;99.90
24814;DHT22;12904;50.088;11.414;2022-10-16T15:38:32;18.20;99.90
24814;DHT22;12904;50.088;11.414;2022-10-16T15:40:58;18.20;99.90
24814;DHT22;12904;50.088;11.414;2022-10-16T15:43:23;18.10;99.90
24814;DHT22;12904;50.088;11.414;2022-10-16T15:46:08;18.10;99.90
24814;DHT22;12904;50.088;11.414;2022-10-16T15:48:35;18.00;99.90
24814;DHT22;12904;50.088;11.414;2022-10-16T15:51:04;18.00;99.90
24814;DHT22;12904;50.088;11.414;2022-10-16T15:53:30;17.90;99.90
24814;DHT22;12904;50.088;11.414;2022-10-16T15:55:56;17.90;99.90
24814;DHT22;12904;50.088;11.414;2022-10-16T15:58:22;17.80;99.90
24814;DHT22;12904;50.088;11.414;2022-10-16T16:00:57;17.80;99.90
24814;DHT22;12904;50.088;11.414;2022-10-16T16:03:26;17.80;99.90
24814;DHT22;12904;50.088;11.414;2022-10-16T16:05:52;17.80;99.90
24814;DHT22;12904;50.088;11.414;2022-10-16T16:08:18;17.70;99.90
24814;DHT22;12904;50.088;11.414;2022-10-16T16:10:44;17.70;99.90
24814;DHT22;12904;50.088;11.414;2022-10-16T16:13:10;17.60;99.90
24814;DHT22;12904;50.088;11.414;2022-10-16T16:15:39;17.60;99.90
24814;DHT22;12904;50.088;11.414;2022-10-16T16:18:04;17.60;99.90
24814;DHT22;12904;50.088;11.414;2022-10-16T16:20:31;17.50;99.90
24814;DHT22;12904;50.088;11.414;2022-10-16T16:22:56;17.40;99.90
24814;DHT22;12904;50.088;11.414;2022-10-16T16:25:22;17.40;99.90
24814;DHT22;12904;50.088;11.414;2022-10-16T16:27:48;17.40;99.90
24814;DHT22;12904;50.088;11.414;2022-10-16T16:30:14;17.30;99.90
24814;DHT22;12904;50.088;11.414;2022-10-16T16:32:39;17.30;99.90
24814;DHT22;12904;50.088;11.414;2022-10-16T16:35:05;17.20;99.90
24814;DHT22;12904;50.088;11.414;2022-10-16T16:37:31;17.20;99.90
24814;DHT22;12904;50.088;11.414;2022-10-16T16:39:57;17.20;99.90
24814;DHT22;12904;50.088;11.414;2022-10-16T16:42:26;17.10;99.90
24814;DHT22;12904;50.088;11.414;2022-10-16T16:44:52;17.20;99.90
24814;DHT22;12904;50.088;11.414;2022-10-16T16:47:18;17.10;99.90
24814;DHT22;12904;50.088;11.414;2022-10-16T16:49:43;17.10;99.90
24814;DHT22;12904;50.088;11.414;2022-10-16T16:52:09;17.00;99.90
24814;DHT22;12904;50.088;11.414;2022-10-16T16:54:35;17.00;99.90
24814;DHT22;12904;50.088;11.414;2022-10-16T16:57:00;17.00;99.90
24814;DHT22;12904;50.088;11.414;2022-10-16T16:59:26;17.00;99.90
24814;DHT22;12904;50.088;11.414;2022-10-16T17:01:51;17.00;99.90
24814;DHT22;12904;50.088;11.414;2022-10-16T17:04:17;17.00;99.90
24814;DHT22;12904;50.088;11.414;2022-10-16T17:06:44;17.00;99.90
24814;DHT22;12904;50.088;11.414;2022-10-16T17:09:10;17.00;99.90
24814;DHT22;12904;50.088;11.414;2022-10-16T17:11:38;17.00;99.90
24814;DHT22;12904;50.088;11.414;2022-10-16T17:14:06;17.00;99.90
24814;DHT22;12904;50.088;11.414;2022-10-16T17:16:36;17.00;99.90
24814;DHT22;12904;50.088;11.414;2022-10-16T17:19:04;17.00;99.90
24814;DHT22;12904;50.088;11.414;2022-10-16T17:21:30;17.00;99.90
24814;DHT22;12904;50.088;11.414;2022-10-16T17:23:57;16.90;99.90
24814;DHT22;12904;50.088;11.414;2022-10-16T17:26:23;16.90;99.90
24814;DHT22;12904;50.088;11.414;2022-10-16T17:28:54;16.90;99.90
24814;DHT22;12904;50.088;11.414;2022-10-16T17:31:23;16.80;99.90
24814;DHT22;12904;50.088;11.414;2022-10-16T17:33:50;16.80;99.90
24814;DHT22;12904;50.088;11.414;2022-10-16T17:36:16;16.70;99.90